KHIE/HIE METAR and TAF weather

Enter ICAO airport designator
Station Type Date Time Source
KHIE METAR 2021/05/15 00:52 UTC NOAA

KHIE 150052Z AUTO 15003KT 10SM OVC100 14/03 A3014 RMK AO2 SLP206 T01440033


Station Type Date Time Source
KHIE Decoded METAR 2021/05/15 00:52 UTC NOAA

MT WASHINGTON REGIONAL AIRPORT , NH, United States (KHIE) 44-22N 71-33W 318M
May 14, 2021 - 08:52 PM EDT / 2021.05.15 0052 UTC
Wind: from the SSE (150 degrees) at 3 MPH (3 KT):0
Visibility: 10 mile(s):0
Sky conditions: overcast
Temperature: 57.9 F (14.4 C)
Dew Point: 37.9 F (3.3 C)
Relative Humidity: 47%
Pressure (altimeter): 30.14 in. Hg (1020 hPa)
ob: KHIE 150052Z AUTO 15003KT 10SM OVC100 14/03 A3014 RMK AO2 SLP206 T01440033
cycle: 1

Station Type Date Time Source
KHIE TAF 2021/05/14 18:45 UTC NOAA

KHIE 141739Z 1418/1518 28010G19KT P6SM BKN090
FM142300 33005KT P6SM SCT090

Example: see airport list